createdAt,value
2024-04-15T00:00:06.416Z,1170.00
2024-04-15T00:01:06.559Z,1170.00
2024-04-15T00:02:06.426Z,1176.00
2024-04-15T00:03:06.533Z,1177.00
2024-04-15T00:04:06.529Z,1169.00
2024-04-15T00:05:06.615Z,1176.00
2024-04-15T00:06:06.560Z,1170.00
2024-04-15T00:07:06.544Z,1180.00
2024-04-15T00:08:06.590Z,1178.00
2024-04-15T00:09:06.576Z,1177.00
2024-04-15T00:10:06.646Z,1184.00
2024-04-15T00:11:06.713Z,1181.00
2024-04-15T00:12:06.675Z,1190.00
2024-04-15T00:13:06.832Z,1188.00
2024-04-15T00:14:06.710Z,1194.00
2024-04-15T00:15:06.730Z,1183.00
2024-04-15T00:16:06.874Z,1198.00
2024-04-15T00:17:06.784Z,1198.00
2024-04-15T00:18:06.899Z,1192.00
2024-04-15T00:19:06.899Z,1196.00
2024-04-15T00:20:06.869Z,1185.00
2024-04-15T00:21:06.854Z,1202.00
2024-04-15T00:22:06.971Z,1192.00
2024-04-15T00:23:06.997Z,1195.00
2024-04-15T00:24:07.011Z,1193.00
2024-04-15T00:25:07.041Z,1191.00
2024-04-15T00:26:07.010Z,1194.00
2024-04-15T00:27:07.046Z,1201.00
2024-04-15T00:28:07.102Z,1202.00
2024-04-15T00:29:07.063Z,1205.00
2024-04-15T00:30:07.111Z,1207.00
2024-04-15T00:31:07.172Z,1197.00
2024-04-15T00:32:07.185Z,1199.00
2024-04-15T00:33:07.349Z,1204.00
2024-04-15T00:34:07.221Z,1202.00
2024-04-15T00:35:07.261Z,1204.00
2024-04-15T00:36:07.265Z,1200.00
2024-04-15T00:37:07.339Z,1211.00
2024-04-15T00:38:07.351Z,1198.00
2024-04-15T00:39:07.410Z,1202.00
2024-04-15T00:40:07.427Z,1204.00
2024-04-15T00:41:07.409Z,1204.00
2024-04-15T00:42:07.454Z,1206.00
2024-04-15T00:43:07.509Z,1218.00
2024-04-15T00:44:07.505Z,1232.00
2024-04-15T00:45:07.541Z,1209.00
2024-04-15T00:46:07.701Z,1212.00
2024-04-15T00:47:07.686Z,1214.00
2024-04-15T00:48:07.719Z,1222.00
2024-04-15T00:49:07.641Z,1213.00
2024-04-15T00:50:07.680Z,1221.00
2024-04-15T00:51:07.708Z,1221.00
2024-04-15T00:52:07.769Z,1213.00
2024-04-15T00:53:07.790Z,1219.00
2024-04-15T00:54:07.844Z,1227.00
2024-04-15T00:55:07.969Z,1220.00
2024-04-15T00:56:07.845Z,1223.00
2024-04-15T00:57:07.867Z,1223.00
2024-04-15T00:58:07.996Z,1221.00
2024-04-15T00:59:07.934Z,1218.00
2024-04-15T01:00:07.945Z,1211.00
2024-04-15T01:01:08.016Z,1222.00
2024-04-15T01:02:08.138Z,1221.00
2024-04-15T01:03:08.088Z,1225.00
2024-04-15T01:04:08.122Z,1221.00
2024-04-15T01:05:08.325Z,1214.00
2024-04-15T01:06:08.129Z,1220.00
2024-04-15T01:07:08.248Z,1217.00
2024-04-15T01:08:08.303Z,1226.00
2024-04-15T01:09:08.267Z,1220.00
2024-04-15T01:10:08.403Z,1221.00
2024-04-15T01:11:08.325Z,1226.00
2024-04-15T01:12:08.378Z,1226.00
2024-04-15T01:13:08.453Z,1213.00
2024-04-15T01:14:08.397Z,1225.00
2024-04-15T01:15:08.408Z,1214.00
2024-04-15T01:16:08.499Z,1215.00
2024-04-15T01:17:08.491Z,1223.00
2024-04-15T01:18:08.663Z,1221.00
2024-04-15T01:19:08.580Z,1228.00
2024-04-15T01:20:08.590Z,1233.00
2024-04-15T01:21:08.594Z,1216.00
2024-04-15T01:22:11.042Z,1223.00
2024-04-15T01:23:08.765Z,1224.00
2024-04-15T01:24:08.768Z,1217.00
2024-04-15T01:25:08.926Z,1224.00
2024-04-15T01:26:08.853Z,1219.00
2024-04-15T01:27:08.890Z,1221.00
2024-04-15T01:28:08.930Z,1227.00
2024-04-15T01:29:08.921Z,1221.00
2024-04-15T01:30:08.952Z,1220.00
2024-04-15T01:31:09.063Z,1220.00
2024-04-15T01:32:09.047Z,1219.00
2024-04-15T01:33:09.090Z,1224.00
2024-04-15T01:34:09.114Z,1222.00
2024-04-15T01:35:09.108Z,1221.00
2024-04-15T01:36:09.145Z,1226.00
2024-04-15T01:37:09.211Z,1218.00
2024-04-15T01:38:09.194Z,1223.00
2024-04-15T01:39:09.236Z,1217.00
2024-04-15T01:40:09.270Z,1225.00
2024-04-15T01:41:09.300Z,1221.00
2024-04-15T01:42:09.349Z,1222.00
2024-04-15T01:43:09.405Z,1226.00
2024-04-15T01:44:09.382Z,1224.00
2024-04-15T01:45:09.406Z,1216.00
2024-04-15T01:46:09.512Z,1222.00
2024-04-15T01:47:09.471Z,1224.00
2024-04-15T01:48:09.528Z,1219.00
2024-04-15T01:49:09.595Z,1226.00
2024-04-15T01:50:09.550Z,1221.00
2024-04-15T01:51:09.589Z,1216.00
2024-04-15T01:52:09.635Z,1230.00
2024-04-15T01:53:09.695Z,1232.00
2024-04-15T01:54:09.693Z,1222.00
2024-04-15T01:55:09.810Z,1221.00
2024-04-15T01:56:09.768Z,1220.00
2024-04-15T01:57:09.758Z,1220.00
2024-04-15T01:58:09.851Z,1220.00
2024-04-15T01:59:09.889Z,1219.00
2024-04-15T02:00:09.891Z,1211.00
2024-04-15T02:01:10.116Z,1221.00
2024-04-15T02:02:09.953Z,1225.00
2024-04-15T02:03:10.147Z,1222.00
2024-04-15T02:04:10.107Z,1220.00
2024-04-15T02:05:10.076Z,1212.00
2024-04-15T02:06:10.121Z,1215.00
2024-04-15T02:07:10.178Z,1216.00
2024-04-15T02:08:10.200Z,1223.00
2024-04-15T02:09:10.202Z,1216.00
2024-04-15T02:10:10.327Z,1215.00
2024-04-15T02:11:10.352Z,1220.00
2024-04-15T02:12:10.377Z,1217.00
2024-04-15T02:13:10.486Z,1228.00
2024-04-15T02:14:10.416Z,1224.00
2024-04-15T02:15:10.470Z,1228.00
2024-04-15T02:16:10.494Z,1228.00
2024-04-15T02:17:10.513Z,1225.00
2024-04-15T02:18:10.731Z,1222.00
2024-04-15T02:19:10.797Z,1227.00
2024-04-15T02:20:10.684Z,1222.00
2024-04-15T02:21:10.711Z,1227.00
2024-04-15T02:22:10.874Z,1222.00
2024-04-15T02:23:10.767Z,1220.00
2024-04-15T02:24:10.812Z,1218.00
2024-04-15T02:25:10.909Z,1218.00
2024-04-15T02:26:10.881Z,1221.00
2024-04-15T02:27:10.960Z,1219.00
2024-04-15T02:28:11.169Z,1215.00
2024-04-15T02:29:11.072Z,1208.00
2024-04-15T02:30:11.074Z,1211.00
2024-04-15T02:31:11.125Z,1214.00
2024-04-15T02:32:11.245Z,1217.00
2024-04-15T02:33:11.155Z,1213.00
2024-04-15T02:34:11.266Z,1206.00
2024-04-15T02:35:11.223Z,1217.00
2024-04-15T02:36:11.261Z,1215.00
2024-04-15T02:37:11.388Z,1227.00
2024-04-15T02:38:11.374Z,1213.00
2024-04-15T02:39:11.402Z,1224.00
2024-04-15T02:40:11.475Z,1234.00
2024-04-15T02:41:11.559Z,1226.00
2024-04-15T02:42:11.530Z,1223.00
2024-04-15T02:43:11.624Z,1215.00
2024-04-15T02:44:11.584Z,1222.00
2024-04-15T02:45:11.625Z,1210.00
2024-04-15T02:46:11.693Z,1220.00
2024-04-15T02:47:11.738Z,1214.00
2024-04-15T02:48:11.771Z,1224.00
2024-04-15T02:49:11.835Z,1223.00
2024-04-15T02:50:11.834Z,1229.00
2024-04-15T02:51:11.892Z,1229.00
2024-04-15T02:52:11.951Z,1222.00
2024-04-15T02:53:11.924Z,1226.00
2024-04-15T02:54:11.966Z,1229.00
2024-04-15T02:55:12.149Z,1219.00
2024-04-15T02:56:12.060Z,1220.00
2024-04-15T02:57:12.075Z,1218.00
2024-04-15T02:58:12.210Z,1214.00
2024-04-15T02:59:12.163Z,1224.00
2024-04-15T03:00:12.197Z,1230.00
2024-04-15T03:01:12.300Z,1217.00
2024-04-15T03:02:12.373Z,1226.00
2024-04-15T03:03:12.368Z,1223.00
2024-04-15T03:04:12.448Z,1221.00
2024-04-15T03:05:12.468Z,1219.00
2024-04-15T03:06:12.441Z,1216.00
2024-04-15T03:07:12.630Z,1207.00
2024-04-15T03:08:12.544Z,1216.00
2024-04-15T03:09:12.575Z,1218.00
2024-04-15T03:10:12.726Z,1215.00
2024-04-15T03:11:12.670Z,1227.00
2024-04-15T03:12:12.680Z,1220.00
2024-04-15T03:13:12.719Z,1223.00
2024-04-15T03:14:12.785Z,1224.00
2024-04-15T03:15:12.788Z,1219.00
2024-04-15T03:16:19.785Z,1217.00
2024-04-15T03:17:13.831Z,1217.00
2024-04-15T03:18:12.871Z,1217.00
2024-04-15T03:19:12.886Z,1223.00
2024-04-15T03:20:12.826Z,1224.00
2024-04-15T03:21:12.819Z,1235.00
2024-04-15T03:22:12.910Z,1229.00
2024-04-15T03:23:12.844Z,1216.00
2024-04-15T03:24:12.860Z,1223.00
2024-04-15T03:25:12.903Z,1220.00
2024-04-15T03:26:12.856Z,1220.00
2024-04-15T03:27:12.821Z,1232.00
2024-04-15T03:28:12.887Z,1219.00
2024-04-15T03:29:12.841Z,1225.00
2024-04-15T03:30:12.823Z,1224.00
2024-04-15T03:31:12.861Z,1225.00
2024-04-15T03:32:12.894Z,1225.00
2024-04-15T03:33:12.874Z,1227.00
2024-04-15T03:34:12.954Z,1217.00
2024-04-15T03:35:12.905Z,1231.00
2024-04-15T03:36:13.072Z,1222.00
2024-04-15T03:37:13.091Z,1226.00
2024-04-15T03:38:13.028Z,1225.00
2024-04-15T03:39:13.045Z,1217.00
2024-04-15T03:40:13.140Z,1224.00
2024-04-15T03:41:13.136Z,1226.00
2024-04-15T03:42:13.212Z,1219.00
2024-04-15T03:43:13.232Z,1220.00
2024-04-15T03:44:13.314Z,1220.00
2024-04-15T03:45:13.366Z,1221.00
2024-04-15T03:46:13.396Z,1230.00
2024-04-15T03:47:13.406Z,1233.00
2024-04-15T03:48:13.626Z,1220.00
2024-04-15T03:49:13.600Z,1224.00
2024-04-15T03:50:13.543Z,1233.00
2024-04-15T03:51:13.576Z,1221.00
2024-04-15T03:52:13.678Z,1228.00
2024-04-15T03:53:13.663Z,1238.00
2024-04-15T03:54:13.779Z,1222.00
2024-04-15T03:55:13.847Z,1219.00
2024-04-15T03:56:13.802Z,1233.00
2024-04-15T03:57:13.842Z,1225.00
2024-04-15T03:58:13.928Z,1231.00
2024-04-15T03:59:13.893Z,1214.00
2024-04-15T04:00:13.967Z,1220.00
2024-04-15T04:01:14.091Z,1222.00
2024-04-15T04:02:14.037Z,1209.00
2024-04-15T04:03:14.155Z,1212.00
2024-04-15T04:04:14.173Z,1217.00
2024-04-15T04:05:14.218Z,1223.00
2024-04-15T04:06:14.268Z,1201.00
2024-04-15T04:07:14.439Z,1203.00
2024-04-15T04:08:14.402Z,1185.00
2024-04-15T04:09:14.484Z,1173.00
2024-04-15T04:10:14.675Z,1163.00
2024-04-15T04:11:14.664Z,1172.00
2024-04-15T04:12:14.743Z,1150.00
2024-04-15T04:13:14.796Z,1152.00
2024-04-15T04:14:14.838Z,1152.00
2024-04-15T04:15:14.881Z,1130.00
2024-04-15T04:16:15.052Z,1143.00
2024-04-15T04:17:15.072Z,1135.00
2024-04-15T04:18:15.225Z,1129.00
2024-04-15T04:19:15.184Z,1129.00
2024-04-15T04:20:15.234Z,1118.00
2024-04-15T04:21:15.271Z,1117.00
2024-04-15T04:22:15.511Z,1114.00
2024-04-15T04:23:15.392Z,1113.00
2024-04-15T04:24:15.425Z,1110.00
2024-04-15T04:25:15.564Z,1107.00
2024-04-15T04:26:15.446Z,1095.00
2024-04-15T04:27:15.494Z,1086.00
2024-04-15T04:28:15.593Z,1094.00
2024-04-15T04:29:15.527Z,1088.00
2024-04-15T04:30:22.727Z,600.00
2024-04-15T04:31:30.047Z,600.00
2024-04-15T04:32:30.002Z,600.00
2024-04-15T04:33:29.913Z,600.00
2024-04-15T04:34:29.908Z,600.00
2024-04-15T04:35:29.987Z,600.00
2024-04-15T04:36:29.916Z,604.00
2024-04-15T04:37:29.918Z,605.00
2024-04-15T04:38:29.938Z,603.00
2024-04-15T04:39:29.918Z,602.00
2024-04-15T04:40:29.949Z,603.00
2024-04-15T04:41:29.968Z,602.00
2024-04-15T04:42:29.954Z,603.00
2024-04-15T04:43:29.959Z,603.00
2024-04-15T04:44:29.951Z,605.00
2024-04-15T04:45:29.941Z,603.00
2024-04-15T04:46:29.956Z,604.00
2024-04-15T04:47:29.957Z,607.00
2024-04-15T04:48:29.956Z,608.00
2024-04-15T04:49:29.978Z,609.00
2024-04-15T04:50:29.954Z,608.00
2024-04-15T04:51:31.379Z,612.00
2024-04-15T04:52:30.023Z,610.00
2024-04-15T04:53:30.044Z,608.00
2024-04-15T04:54:30.092Z,609.00
2024-04-15T04:55:30.149Z,609.00
2024-04-15T04:56:30.222Z,603.00
2024-04-15T04:57:30.278Z,604.00
2024-04-15T04:58:30.311Z,608.00
2024-04-15T04:59:30.396Z,606.00
2024-04-15T05:00:30.436Z,603.00
2024-04-15T05:01:30.594Z,611.00
2024-04-15T05:02:30.602Z,613.00
2024-04-15T05:03:30.638Z,611.00
2024-04-15T05:04:30.824Z,616.00
2024-04-15T05:05:30.735Z,615.00
2024-04-15T05:06:30.801Z,613.00
2024-04-15T05:07:30.842Z,618.00
2024-04-15T05:08:30.918Z,612.00
2024-04-15T05:09:30.971Z,616.00
2024-04-15T05:10:31.047Z,615.00
2024-04-15T05:11:31.118Z,618.00
2024-04-15T05:12:31.155Z,616.00
2024-04-15T05:13:31.282Z,620.00
2024-04-15T05:14:31.268Z,618.00
2024-04-15T05:15:31.309Z,618.00
2024-04-15T05:16:31.432Z,621.00
2024-04-15T05:17:31.538Z,621.00
2024-04-15T05:18:31.624Z,621.00
2024-04-15T05:19:31.572Z,626.00
2024-04-15T05:20:31.605Z,621.00
2024-04-15T05:21:33.352Z,628.00
2024-04-15T05:22:31.691Z,623.00
2024-04-15T05:23:31.737Z,622.00
2024-04-15T05:24:31.810Z,625.00
2024-04-15T05:25:31.884Z,626.00
2024-04-15T05:26:31.960Z,630.00
2024-04-15T05:27:31.960Z,626.00
2024-04-15T05:28:32.054Z,624.00
2024-04-15T05:29:32.074Z,627.00
2024-04-15T05:30:32.188Z,629.00
2024-04-15T05:31:32.208Z,632.00
2024-04-15T05:32:32.686Z,630.00
2024-04-15T05:33:32.353Z,630.00
2024-04-15T05:34:32.375Z,625.00
2024-04-15T05:35:32.480Z,626.00
2024-04-15T05:36:32.541Z,630.00
2024-04-15T05:37:32.550Z,628.00
2024-04-15T05:38:32.564Z,630.00
2024-04-15T05:39:32.621Z,627.00
2024-04-15T05:40:32.624Z,620.00
2024-04-15T05:41:32.614Z,615.00
2024-04-15T05:42:32.750Z,617.00
2024-04-15T05:43:32.730Z,615.00
2024-04-15T05:44:32.700Z,619.00
2024-04-15T05:45:32.757Z,621.00
2024-04-15T05:46:32.856Z,617.00
2024-04-15T05:47:32.994Z,607.00
2024-04-15T05:48:33.220Z,611.00
2024-04-15T05:49:33.005Z,616.00
2024-04-15T05:50:33.089Z,609.00
2024-04-15T05:51:33.065Z,611.00
2024-04-15T05:52:33.138Z,612.00
2024-04-15T05:53:33.129Z,625.00
2024-04-15T05:54:33.126Z,619.00
2024-04-15T05:55:33.158Z,630.00
2024-04-15T05:56:33.141Z,634.00
2024-04-15T05:57:33.152Z,640.00
2024-04-15T05:58:33.149Z,646.00
2024-04-15T05:59:33.310Z,651.00
2024-04-15T06:00:34.560Z,655.00
2024-04-15T06:01:33.353Z,662.00
2024-04-15T06:02:33.337Z,662.00
2024-04-15T06:03:33.466Z,677.00
2024-04-15T06:04:33.486Z,691.00
2024-04-15T06:05:33.484Z,711.00
2024-04-15T06:06:33.512Z,722.00
2024-04-15T06:07:33.609Z,727.00
2024-04-15T06:08:33.621Z,745.00
2024-04-15T06:09:33.751Z,748.00
2024-04-15T06:10:33.760Z,762.00
2024-04-15T06:11:33.876Z,768.00
2024-04-15T06:12:33.911Z,781.00
2024-04-15T06:13:33.976Z,802.00
2024-04-15T06:14:34.022Z,799.00
2024-04-15T06:15:34.137Z,813.00
2024-04-15T06:16:34.265Z,819.00
2024-04-15T06:17:34.222Z,836.00
2024-04-15T06:18:35.021Z,841.00
2024-04-15T06:19:34.322Z,857.00
2024-04-15T06:20:34.409Z,863.00
2024-04-15T06:21:34.456Z,883.00
2024-04-15T06:22:34.521Z,873.00
2024-04-15T06:23:34.568Z,890.00
2024-04-15T06:24:34.655Z,899.00
2024-04-15T06:25:34.719Z,902.00
2024-04-15T06:26:34.769Z,918.00
2024-04-15T06:27:34.870Z,912.00
2024-04-15T06:28:34.910Z,918.00
2024-04-15T06:29:35.213Z,924.00
2024-04-15T06:30:35.099Z,926.00
2024-04-15T06:31:35.100Z,939.00
2024-04-15T06:32:35.144Z,940.00
2024-04-15T06:33:35.322Z,938.00
2024-04-15T06:34:35.296Z,942.00
2024-04-15T06:35:35.345Z,954.00
2024-04-15T06:36:35.399Z,949.00
2024-04-15T06:37:35.581Z,948.00
2024-04-15T06:38:35.619Z,929.00
2024-04-15T06:39:35.793Z,936.00
2024-04-15T06:40:35.645Z,948.00
2024-04-15T06:41:35.758Z,955.00
2024-04-15T06:42:35.804Z,958.00
2024-04-15T06:43:36.137Z,956.00
2024-04-15T06:44:36.111Z,959.00
2024-04-15T06:45:35.940Z,960.00
2024-04-15T06:46:36.065Z,954.00
2024-04-15T06:47:36.076Z,955.00
2024-04-15T06:48:36.141Z,947.00
2024-04-15T06:49:36.676Z,952.00
2024-04-15T06:50:36.646Z,940.00
2024-04-15T06:51:36.329Z,948.00
2024-04-15T06:52:36.416Z,935.00
2024-04-15T06:53:36.442Z,926.00
2024-04-15T06:54:36.701Z,919.00
2024-04-15T06:55:36.667Z,916.00
2024-04-15T06:56:36.736Z,924.00
2024-04-15T06:57:36.700Z,919.00
2024-04-15T06:58:36.796Z,914.00
2024-04-15T06:59:37.652Z,913.00
2024-04-15T07:00:36.930Z,919.00
2024-04-15T07:01:39.150Z,920.00
2024-04-15T07:02:37.107Z,911.00
2024-04-15T07:03:36.999Z,912.00
2024-04-15T07:04:37.082Z,919.00
2024-04-15T07:05:36.946Z,909.00
2024-04-15T07:06:37.174Z,916.00
2024-04-15T07:07:36.939Z,906.00
2024-04-15T07:08:36.923Z,919.00
2024-04-15T07:09:37.126Z,911.00
2024-04-15T07:10:36.963Z,920.00
2024-04-15T07:11:36.991Z,907.00
2024-04-15T07:12:36.941Z,916.00
2024-04-15T07:13:36.990Z,909.00
2024-04-15T07:14:36.992Z,910.00
2024-04-15T07:15:37.027Z,900.00
2024-04-15T07:16:37.096Z,908.00
2024-04-15T07:17:36.979Z,912.00
2024-04-15T07:18:36.975Z,907.00
2024-04-15T07:19:36.962Z,913.00
2024-04-15T07:20:36.975Z,893.00
2024-04-15T07:21:37.426Z,898.00
2024-04-15T07:22:36.998Z,882.00
2024-04-15T07:23:36.947Z,888.00
2024-04-15T07:24:36.969Z,890.00
2024-04-15T07:25:36.956Z,889.00
2024-04-15T07:26:36.977Z,893.00
2024-04-15T07:27:36.952Z,894.00
2024-04-15T07:28:36.980Z,903.00
2024-04-15T07:29:36.994Z,892.00
2024-04-15T07:30:36.997Z,906.00
2024-04-15T07:31:37.025Z,908.00
2024-04-15T07:32:36.978Z,908.00
2024-04-15T07:33:37.179Z,932.00
2024-04-15T07:34:37.146Z,915.00
2024-04-15T07:35:36.985Z,905.00
2024-04-15T07:36:36.974Z,903.00
2024-04-15T07:37:36.989Z,881.00
2024-04-15T07:38:36.981Z,845.00
2024-04-15T07:39:37.005Z,831.00
2024-04-15T07:40:37.066Z,818.00
2024-04-15T07:41:37.016Z,796.00
2024-04-15T07:42:43.879Z,784.00
2024-04-15T07:43:38.080Z,777.00
2024-04-15T07:44:37.041Z,753.00
2024-04-15T07:45:37.001Z,736.00
2024-04-15T07:46:37.018Z,711.00
2024-04-15T07:47:37.212Z,674.00
2024-04-15T07:48:36.980Z,667.00
2024-04-15T07:49:37.029Z,654.00
2024-04-15T07:50:37.044Z,646.00
2024-04-15T07:51:37.001Z,643.00
2024-04-15T07:52:36.999Z,637.00
2024-04-15T07:53:36.988Z,626.00
2024-04-15T07:54:37.002Z,626.00
2024-04-15T07:55:37.193Z,620.00
2024-04-15T07:56:40.273Z,617.00
2024-04-15T07:57:37.015Z,617.00
2024-04-15T07:58:37.186Z,615.00
2024-04-15T07:59:37.071Z,617.00
2024-04-15T08:00:37.051Z,618.00
2024-04-15T08:01:37.090Z,613.00
2024-04-15T08:02:37.051Z,613.00
2024-04-15T08:03:37.205Z,613.00
2024-04-15T08:04:37.067Z,613.00
2024-04-15T08:05:37.234Z,613.00
2024-04-15T08:06:37.072Z,607.00
2024-04-15T08:07:37.056Z,608.00
2024-04-15T08:08:37.019Z,608.00
2024-04-15T08:09:37.063Z,605.00
2024-04-15T08:10:37.182Z,607.00
2024-04-15T08:11:37.009Z,605.00
2024-04-15T08:12:37.012Z,608.00
2024-04-15T08:13:37.217Z,615.00
2024-04-15T08:14:37.023Z,616.00
2024-04-15T08:15:37.014Z,624.00
2024-04-15T08:16:37.130Z,619.00
2024-04-15T08:17:37.063Z,623.00
2024-04-15T08:18:37.065Z,632.00
2024-04-15T08:19:37.050Z,635.00
2024-04-15T08:20:37.019Z,636.00
2024-04-15T08:21:37.028Z,642.00
2024-04-15T08:22:37.198Z,649.00
2024-04-15T08:23:37.160Z,646.00
2024-04-15T08:24:37.135Z,655.00
2024-04-15T08:25:37.184Z,660.00
2024-04-15T08:26:38.086Z,660.00
2024-04-15T08:27:37.841Z,664.00
2024-04-15T08:28:37.344Z,661.00
2024-04-15T08:29:37.396Z,663.00
2024-04-15T08:30:37.448Z,688.00
2024-04-15T08:31:37.436Z,694.00
2024-04-15T08:32:37.565Z,718.00
2024-04-15T08:33:37.703Z,705.00
2024-04-15T08:34:37.609Z,735.00
2024-04-15T08:35:37.791Z,697.00
2024-04-15T08:36:37.759Z,716.00
2024-04-15T08:37:37.806Z,683.00
2024-04-15T08:38:38.228Z,687.00
2024-04-15T08:39:38.196Z,683.00
2024-04-15T08:40:38.197Z,679.00
2024-04-15T08:41:40.232Z,660.00
2024-04-15T08:42:38.936Z,652.00
2024-04-15T08:43:37.942Z,641.00
2024-04-15T08:44:37.948Z,637.00
2024-04-15T08:45:37.945Z,635.00
2024-04-15T08:46:37.978Z,629.00
2024-04-15T08:47:38.216Z,624.00
2024-04-15T08:48:37.937Z,625.00
2024-04-15T08:49:38.203Z,620.00
2024-04-15T08:50:38.075Z,612.00
2024-04-15T08:51:38.087Z,602.00
2024-04-15T08:52:37.950Z,618.00
2024-04-15T08:53:37.933Z,601.00
2024-04-15T08:54:37.967Z,607.00
2024-04-15T08:55:38.037Z,605.00
2024-04-15T08:56:38.083Z,621.00
2024-04-15T08:57:38.132Z,602.00
2024-04-15T08:58:38.695Z,606.00
2024-04-15T08:59:38.274Z,606.00
2024-04-15T09:00:38.463Z,606.00
2024-04-15T09:01:38.496Z,609.00
2024-04-15T09:02:38.551Z,611.00
2024-04-15T09:03:38.683Z,607.00
2024-04-15T09:04:38.699Z,609.00
2024-04-15T09:05:39.247Z,622.00
2024-04-15T09:06:38.847Z,616.00
2024-04-15T09:07:38.839Z,611.00
2024-04-15T09:08:39.703Z,625.00
2024-04-15T09:09:38.920Z,627.00
2024-04-15T09:10:38.965Z,616.00
2024-04-15T09:11:39.098Z,620.00
2024-04-15T09:12:39.167Z,618.00
2024-04-15T09:13:39.234Z,623.00
2024-04-15T09:14:39.524Z,628.00
2024-04-15T09:15:39.279Z,633.00
2024-04-15T09:16:41.208Z,630.00
2024-04-15T09:17:39.368Z,630.00
2024-04-15T09:18:39.900Z,630.00
2024-04-15T09:19:39.363Z,630.00
2024-04-15T09:20:49.747Z,633.00
2024-04-15T09:21:40.330Z,630.00
2024-04-15T09:22:40.115Z,628.00
2024-04-15T09:23:39.330Z,627.00
2024-04-15T09:24:39.730Z,631.00
2024-04-15T09:25:40.221Z,635.00
2024-04-15T09:26:42.428Z,623.00
2024-04-15T09:27:39.312Z,623.00
2024-04-15T09:28:39.620Z,618.00
2024-04-15T09:29:39.709Z,621.00
2024-04-15T09:30:39.883Z,619.00
2024-04-15T09:31:39.754Z,610.00
2024-04-15T09:32:39.733Z,608.00
2024-04-15T09:33:39.743Z,605.00
2024-04-15T09:34:39.699Z,601.00
2024-04-15T09:35:39.700Z,616.00
2024-04-15T09:36:40.728Z,605.00
2024-04-15T09:37:39.327Z,607.00
2024-04-15T09:38:42.170Z,613.00
2024-04-15T09:39:39.371Z,613.00
2024-04-15T09:40:39.709Z,615.00
2024-04-15T09:41:39.341Z,615.00
2024-04-15T09:42:39.346Z,626.00
2024-04-15T09:43:39.334Z,626.00
2024-04-15T09:44:42.295Z,627.00
2024-04-15T09:45:39.346Z,627.00
2024-04-15T09:46:39.736Z,628.00
2024-04-15T09:47:39.366Z,630.00
2024-04-15T09:48:39.355Z,635.00
2024-04-15T09:49:39.342Z,644.00
2024-04-15T09:50:42.254Z,642.00
2024-04-15T09:51:39.694Z,642.00
2024-04-15T09:52:39.407Z,640.00
2024-04-15T09:53:40.205Z,641.00
2024-04-15T09:54:39.373Z,647.00
2024-04-15T09:55:39.354Z,655.00
2024-04-15T09:56:39.719Z,661.00
2024-04-15T09:57:39.425Z,676.00
2024-04-15T09:58:39.380Z,694.00
2024-04-15T09:59:39.722Z,699.00
2024-04-15T10:00:39.431Z,706.00
2024-04-15T10:01:39.471Z,729.00
2024-04-15T10:02:43.111Z,733.00
2024-04-15T10:03:39.438Z,733.00
2024-04-15T10:04:39.463Z,736.00
2024-04-15T10:05:39.423Z,746.00
2024-04-15T10:06:39.433Z,756.00
2024-04-15T10:07:39.408Z,784.00
2024-04-15T10:08:41.634Z,784.00
2024-04-15T10:09:39.402Z,784.00
2024-04-15T10:10:39.407Z,786.00
2024-04-15T10:11:39.383Z,792.00
2024-04-15T10:12:39.464Z,799.00
2024-04-15T10:13:39.419Z,800.00
2024-04-15T10:14:42.657Z,803.00
2024-04-15T10:15:39.389Z,803.00
2024-04-15T10:16:41.502Z,804.00
2024-04-15T10:17:39.448Z,803.00
2024-04-15T10:18:39.418Z,804.00
2024-04-15T10:19:39.409Z,804.00
2024-04-15T10:20:39.446Z,795.00
2024-04-15T10:21:39.741Z,804.00
2024-04-15T10:22:39.436Z,790.00
2024-04-15T10:23:39.439Z,784.00
2024-04-15T10:24:39.741Z,776.00
2024-04-15T10:25:39.419Z,778.00
2024-04-15T10:26:39.472Z,760.00
2024-04-15T10:27:39.647Z,756.00
2024-04-15T10:28:39.790Z,742.00
2024-04-15T10:29:39.449Z,726.00
2024-04-15T10:30:39.484Z,717.00
2024-04-15T10:31:39.450Z,708.00
2024-04-15T10:32:39.522Z,708.00
2024-04-15T10:33:39.735Z,704.00
2024-04-15T10:34:39.395Z,706.00
2024-04-15T10:35:39.445Z,701.00
2024-04-15T10:36:39.417Z,706.00
2024-04-15T10:37:39.732Z,701.00
2024-04-15T10:38:39.551Z,688.00
2024-04-15T10:39:39.399Z,670.00
2024-04-15T10:40:39.450Z,671.00
2024-04-15T10:41:39.466Z,664.00
2024-04-15T10:42:39.431Z,654.00
2024-04-15T10:43:39.744Z,654.00
2024-04-15T10:44:39.432Z,651.00
2024-04-15T10:45:39.435Z,659.00
2024-04-15T10:46:39.446Z,665.00
2024-04-15T10:47:39.484Z,660.00
2024-04-15T10:48:39.761Z,666.00
2024-04-15T10:49:39.440Z,667.00
2024-04-15T10:50:39.543Z,664.00
2024-04-15T10:51:39.450Z,665.00
2024-04-15T10:52:39.499Z,672.00
2024-04-15T10:53:39.747Z,663.00
2024-04-15T10:54:39.456Z,666.00
2024-04-15T10:55:39.438Z,671.00
2024-04-15T10:56:39.749Z,671.00
2024-04-15T10:57:39.460Z,662.00
2024-04-15T10:58:39.423Z,666.00
2024-04-15T10:59:39.476Z,664.00
2024-04-15T11:00:39.827Z,662.00
2024-04-15T11:01:39.514Z,675.00
2024-04-15T11:02:39.549Z,662.00
2024-04-15T11:03:39.530Z,662.00
2024-04-15T11:04:39.679Z,660.00
2024-04-15T11:05:39.772Z,662.00
2024-04-15T11:06:39.663Z,661.00
2024-04-15T11:07:39.739Z,657.00
2024-04-15T11:08:39.742Z,663.00
2024-04-15T11:09:40.260Z,655.00
2024-04-15T11:10:39.933Z,656.00
2024-04-15T11:11:39.883Z,655.00
2024-04-15T11:12:39.865Z,653.00
2024-04-15T11:13:40.241Z,650.00
2024-04-15T11:14:39.920Z,656.00
2024-04-15T11:15:40.003Z,653.00
2024-04-15T11:16:40.200Z,651.00
2024-04-15T11:17:40.094Z,649.00
2024-04-15T11:18:40.292Z,636.00
2024-04-15T11:19:40.073Z,624.00
2024-04-15T11:20:40.123Z,620.00
2024-04-15T11:21:41.076Z,619.00
2024-04-15T11:22:40.584Z,623.00
2024-04-15T11:23:41.832Z,626.00
2024-04-15T11:24:40.291Z,632.00
2024-04-15T11:25:40.290Z,628.00
2024-04-15T11:26:40.340Z,630.00
2024-04-15T11:27:40.346Z,633.00
2024-04-15T11:28:40.426Z,634.00
2024-04-15T11:29:51.670Z,635.00
2024-04-15T11:30:41.357Z,636.00
2024-04-15T11:31:40.383Z,634.00
2024-04-15T11:32:40.448Z,632.00
2024-04-15T11:33:40.445Z,637.00
2024-04-15T11:34:40.854Z,631.00
2024-04-15T11:35:40.400Z,636.00
2024-04-15T11:36:40.411Z,634.00
2024-04-15T11:37:40.429Z,637.00
2024-04-15T11:38:40.402Z,639.00
2024-04-15T11:39:40.484Z,637.00
2024-04-15T11:40:40.710Z,633.00
2024-04-15T11:41:40.647Z,634.00
2024-04-15T11:42:40.682Z,630.00
2024-04-15T11:43:40.662Z,627.00
2024-04-15T11:44:40.759Z,624.00
2024-04-15T11:45:40.807Z,618.00
2024-04-15T11:46:40.952Z,617.00
2024-04-15T11:47:40.967Z,616.00
2024-04-15T11:48:40.994Z,613.00
2024-04-15T11:49:41.046Z,605.00
2024-04-15T11:50:41.081Z,604.00
2024-04-15T11:51:41.188Z,603.00
2024-04-15T11:52:41.227Z,602.00
2024-04-15T11:53:41.278Z,610.00
2024-04-15T11:54:41.341Z,605.00
2024-04-15T11:55:41.400Z,601.00
2024-04-15T11:56:41.454Z,603.00
2024-04-15T11:57:41.536Z,603.00
2024-04-15T11:58:41.583Z,600.00
2024-04-15T11:59:41.661Z,603.00
2024-04-15T12:00:41.765Z,603.00
2024-04-15T12:01:41.838Z,600.00
2024-04-15T12:02:41.849Z,602.00
2024-04-15T12:03:41.910Z,605.00
2024-04-15T12:04:41.974Z,610.00
2024-04-15T12:05:41.993Z,616.00
2024-04-15T12:06:42.041Z,614.00
2024-04-15T12:07:42.082Z,620.00
2024-04-15T12:08:42.197Z,622.00
2024-04-15T12:09:42.178Z,622.00
2024-04-15T12:10:42.324Z,623.00
2024-04-15T12:11:42.340Z,623.00
2024-04-15T12:12:42.354Z,625.00
2024-04-15T12:13:42.395Z,626.00
2024-04-15T12:14:42.843Z,630.00
2024-04-15T12:15:42.447Z,633.00
2024-04-15T12:16:42.629Z,636.00
2024-04-15T12:17:42.807Z,635.00
2024-04-15T12:18:42.638Z,640.00
2024-04-15T12:19:42.646Z,643.00
2024-04-15T12:20:42.682Z,645.00